Time;durP1;ratioP1;P1;durP2;ratioP2;P2;SDS_P1;SDS_P2;PMS_P1;PMS_P2;Temp;Humidity;BMP_temperature;BMP_pressure;BME280_temperature;BME280_humidity;BME280_pressure;Samples;Min_cycle;Max_cycle;Signal;HPM_P1;HPM_P2
2024/04/20 00:00:49;;;;;;;2.00;0.40;;;;;;;6.57;100.00;99788.75;5429994;26;20469;-68
2024/04/20 00:03:17;;;;;;;2.00;0.37;;;;;;;6.60;100.00;99800.03;5444041;26;21065;-68
2024/04/20 00:05:45;;;;;;;2.10;0.53;;;;;;;6.54;100.00;99810.88;5448266;26;20465;-68
2024/04/20 00:08:13;;;;;;;2.60;0.50;;;;;;;6.54;100.00;99807.38;5443910;26;20589;-69
2024/04/20 00:10:42;;;;;;;2.47;0.70;;;;;;;6.52;100.00;99807.69;5444811;26;20526;-69
2024/04/20 00:13:12;;;;;;;7.60;1.33;;;;;;;6.50;100.00;99811.75;5444791;26;20534;-69
2024/04/20 00:15:41;;;;;;;2.13;0.77;;;;;;;6.50;100.00;99817.91;5450734;26;20491;-70
2024/04/20 00:18:10;;;;;;;2.30;1.23;;;;;;;6.50;100.00;99822.50;5434477;26;21097;-69
2024/04/20 00:20:38;;;;;;;2.30;0.90;;;;;;;6.43;100.00;99822.88;5442274;26;20486;-69
2024/04/20 00:23:06;;;;;;;2.70;1.00;;;;;;;6.46;100.00;99825.00;5443474;26;20535;-69
2024/04/20 00:25:38;;;;;;;2.10;0.40;;;;;;;6.50;100.00;99834.06;5461113;26;20468;-69
2024/04/20 00:28:06;;;;;;;2.00;0.40;;;;;;;6.56;100.00;99832.13;5452844;26;20531;-69
2024/04/20 00:30:37;;;;;;;2.50;1.00;;;;;;;6.55;100.00;99841.25;5434560;26;20467;-69
2024/04/20 00:33:06;;;;;;;2.30;0.73;;;;;;;6.54;100.00;99835.09;5409803;26;20523;-70
2024/04/20 00:35:38;;;;;;;2.10;0.50;;;;;;;6.57;100.00;99841.78;5421711;26;20529;-70
2024/04/20 00:38:07;;;;;;;2.20;0.70;;;;;;;6.54;100.00;99853.91;5429186;26;21080;-70
2024/04/20 00:40:35;;;;;;;2.00;0.30;;;;;;;6.52;100.00;99858.78;5416087;26;20618;-69
2024/04/20 00:43:03;;;;;;;2.10;0.63;;;;;;;6.58;100.00;99856.81;5445397;26;21045;-69
2024/04/20 00:45:33;;;;;;;3.03;1.13;;;;;;;6.61;100.00;99869.69;5449494;26;20538;-69
2024/04/20 00:48:04;;;;;;;2.10;0.73;;;;;;;6.58;100.00;99875.66;5442520;26;20572;-69
2024/04/20 00:50:34;;;;;;;2.10;0.53;;;;;;;6.53;100.00;99875.75;5416410;26;20474;-69
2024/04/20 00:53:03;;;;;;;2.00;0.30;;;;;;;6.44;100.00;99882.88;5443973;26;20800;-69
2024/04/20 00:55:32;;;;;;;2.00;0.30;;;;;;;6.43;100.00;99881.28;5445522;26;21034;-70
2024/04/20 00:58:04;;;;;;;2.50;0.50;;;;;;;6.47;100.00;99883.09;5446803;26;20521;-69
2024/04/20 01:00:34;;;;;;;2.00;0.50;;;;;;;6.45;100.00;99892.53;5441360;26;20465;-70
2024/04/20 01:03:05;;;;;;;2.00;0.37;;;;;;;6.38;100.00;99900.97;5445640;26;20575;-70
2024/04/20 01:05:34;;;;;;;2.00;0.40;;;;;;;6.36;100.00;99902.34;5444160;26;20462;-70
2024/04/20 01:08:03;;;;;;;2.10;0.43;;;;;;;6.36;100.00;99903.13;5448662;26;20582;-70
2024/04/20 01:10:32;;;;;;;2.40;0.93;;;;;;;6.37;100.00;99903.94;5427273;26;20475;-70
2024/04/20 01:13:04;;;;;;;1.97;0.40;;;;;;;6.38;100.00;99908.25;5441154;26;20526;-70
2024/04/20 01:15:33;;;;;;;1.97;0.37;;;;;;;6.43;100.00;99919.72;5444871;26;20506;-70
2024/04/20 01:18:02;;;;;;;2.20;0.77;;;;;;;6.43;100.00;99914.34;5442763;26;20531;-70
2024/04/20 01:20:33;;;;;;;2.00;0.40;;;;;;;6.42;100.00;99917.31;5443275;26;20522;-70
2024/04/20 01:23:02;;;;;;;2.03;0.40;;;;;;;6.37;100.00;99928.13;5418311;26;20883;-70
2024/04/20 01:25:31;;;;;;;2.00;0.40;;;;;;;6.29;100.00;99925.03;5442595;26;20486;-70
2024/04/20 01:28:03;;;;;;;2.20;0.73;;;;;;;6.30;100.00;99940.06;5442678;26;21088;-70
2024/04/20 01:30:31;;;;;;;2.00;0.30;;;;;;;6.22;100.00;99934.53;5440710;26;20958;-71
2024/04/20 01:33:00;;;;;;;2.97;0.87;;;;;;;6.17;100.00;99946.13;5444690;26;20485;-70
2024/04/20 01:35:29;;;;;;;2.00;0.40;;;;;;;6.17;100.00;99945.34;5446057;26;20521;-70
2024/04/20 01:37:57;;;;;;;1.97;0.30;;;;;;;6.12;100.00;99950.78;5445458;26;20529;-69
2024/04/20 01:40:25;;;;;;;2.10;0.60;;;;;;;6.09;100.00;99951.34;5443035;26;20477;-69
2024/04/20 01:42:54;;;;;;;2.00;0.40;;;;;;;6.11;100.00;99968.81;5443213;26;20867;-71
2024/04/20 01:45:25;;;;;;;1.90;0.30;;;;;;;6.02;100.00;99957.06;5444630;26;20458;-70
2024/04/20 01:47:53;;;;;;;2.00;0.40;;;;;;;6.05;100.00;99975.31;5448807;26;20474;-70
2024/04/20 01:50:23;;;;;;;2.30;0.70;;;;;;;6.04;100.00;99976.41;5440892;26;20469;-70
2024/04/20 01:52:51;;;;;;;2.27;0.50;;;;;;;6.07;100.00;99979.31;5440010;26;20478;-70
2024/04/20 01:55:19;;;;;;;2.00;0.40;;;;;;;6.04;100.00;99981.78;5415645;26;20534;-69
2024/04/20 01:57:48;;;;;;;2.37;0.60;;;;;;;6.01;100.00;99988.50;5443368;26;20521;-70
2024/04/20 02:00:17;;;;;;;2.30;0.60;;;;;;;6.03;100.00;99991.72;5435203;26;20471;-71
2024/04/20 02:02:48;;;;;;;2.00;0.30;;;;;;;5.96;100.00;100006.59;5447076;26;20490;-70
2024/04/20 02:05:16;;;;;;;2.10;0.40;;;;;;;5.92;100.00;100005.56;5444331;26;20910;-70
2024/04/20 02:07:44;;;;;;;2.30;0.50;;;;;;;5.86;100.00;100007.47;5443066;26;20478;-70
2024/04/20 02:10:12;;;;;;;2.00;0.30;;;;;;;5.82;100.00;100020.66;5442652;26;20526;-70
2024/04/20 02:12:41;;;;;;;1.93;0.30;;;;;;;5.85;100.00;100015.81;5437267;26;20482;-71
2024/04/20 02:15:10;;;;;;;2.00;0.30;;;;;;;5.87;100.00;100024.38;5443022;26;20470;-71
2024/04/20 02:17:38;;;;;;;2.00;0.30;;;;;;;5.86;100.00;100034.34;5442183;26;20470;-70
2024/04/20 02:20:09;;;;;;;2.10;0.70;;;;;;;5.85;100.00;100048.88;5421740;26;20471;-70
2024/04/20 02:22:38;;;;;;;2.00;0.30;;;;;;;5.79;100.00;100052.66;5432759;26;20474;-70
2024/04/20 02:25:07;;;;;;;2.00;0.30;;;;;;;5.69;100.00;100064.31;5441969;26;20470;-70
2024/04/20 02:27:35;;;;;;;2.00;0.47;;;;;;;5.67;100.00;100065.69;5416283;26;20531;-70
2024/04/20 02:30:04;;;;;;;1.93;0.30;;;;;;;5.65;100.00;100057.91;5434976;26;20535;-70
2024/04/20 02:32:32;;;;;;;2.00;0.40;;;;;;;5.57;100.00;100066.53;5413899;26;20854;-71
2024/04/20 02:35:00;;;;;;;1.97;0.30;;;;;;;5.64;100.00;100075.09;5448870;26;20469;-69
2024/04/20 02:37:31;;;;;;;1.93;0.30;;;;;;;5.61;100.00;100083.72;5443917;26;20967;-70
2024/04/20 02:39:59;;;;;;;2.00;0.30;;;;;;;5.58;100.00;100086.97;5443916;26;20474;-69
2024/04/20 02:42:28;;;;;;;2.00;0.40;;;;;;;5.60;100.00;100100.13;5410372;26;20479;-69
2024/04/20 02:44:56;;;;;;;2.13;0.57;;;;;;;5.54;100.00;100102.06;5466881;20;20462;-75
2024/04/20 02:47:24;;;;;;;2.00;0.40;;;;;;;5.48;100.00;100113.88;5527151;26;20462;-74
2024/04/20 02:49:52;;;;;;;1.90;0.30;;;;;;;5.40;100.00;100101.03;5491427;26;20472;-74
2024/04/20 02:52:21;;;;;;;1.97;0.30;;;;;;;5.30;100.00;100128.78;5489624;26;20468;-74
2024/04/20 02:54:49;;;;;;;1.90;0.30;;;;;;;5.36;100.00;100132.22;5486443;26;20835;-73
2024/04/20 02:57:17;;;;;;;2.00;0.30;;;;;;;5.34;100.00;100139.75;5486947;26;20532;-73
2024/04/20 02:59:45;;;;;;;1.97;0.30;;;;;;;5.28;100.00;100139.00;5488955;26;20465;-76
2024/04/20 03:02:14;;;;;;;2.20;0.80;;;;;;;5.31;100.00;100154.53;5488027;26;20520;-74
2024/04/20 03:04:42;;;;;;;1.97;0.37;;;;;;;5.22;100.00;100140.09;5486964;26;20484;-71
2024/04/20 03:07:11;;;;;;;2.00;0.30;;;;;;;5.20;100.00;100163.72;5488069;26;20527;-72
2024/04/20 03:09:39;;;;;;;3.23;0.83;;;;;;;5.12;100.00;100154.38;5489823;26;20922;-74
2024/04/20 03:12:14;;;;;;;2.00;0.30;;;;;;;5.07;100.00;100175.88;5487249;26;20472;-70
2024/04/20 03:14:42;;;;;;;1.90;0.30;;;;;;;5.08;100.00;100177.47;5488479;26;20539;-71
2024/04/20 03:17:10;;;;;;;2.00;0.40;;;;;;;5.05;100.00;100184.19;5486000;26;20520;-71
2024/04/20 03:19:39;;;;;;;1.93;0.40;;;;;;;5.04;100.00;100185.25;5489876;26;20578;-71
2024/04/20 03:22:07;;;;;;;2.00;0.30;;;;;;;4.97;100.00;100192.00;5486345;26;21059;-72
2024/04/20 03:24:35;;;;;;;2.00;0.30;;;;;;;5.00;100.00;100194.13;5482159;26;20465;-71
2024/04/20 03:27:04;;;;;;;1.93;0.30;;;;;;;5.01;100.00;100201.94;5488115;26;20472;-73
2024/04/20 03:29:35;;;;;;;2.10;0.40;;;;;;;5.04;100.00;100203.25;5485815;26;20862;-72
2024/04/20 03:32:03;;;;;;;2.00;0.30;;;;;;;4.96;100.00;100210.00;5491178;26;21055;-71
2024/04/20 03:34:32;;;;;;;1.90;0.40;;;;;;;4.92;100.00;100211.63;5490404;26;20473;-70
2024/04/20 03:37:00;;;;;;;1.90;0.30;;;;;;;4.97;100.00;100210.78;5492884;26;20452;-71
2024/04/20 03:39:28;;;;;;;1.90;0.30;;;;;;;4.92;100.00;100234.97;5491466;26;20543;-72
2024/04/20 03:41:56;;;;;;;1.97;0.40;;;;;;;4.89;100.00;100224.75;5493198;26;20460;-72
2024/04/20 03:44:24;;;;;;;1.93;0.30;;;;;;;4.85;100.00;100235.22;5489999;26;20815;-73
2024/04/20 03:46:56;;;;;;;2.00;0.40;;;;;;;4.86;100.00;100252.13;5493235;26;20520;-72
2024/04/20 03:49:24;;;;;;;1.97;0.30;;;;;;;4.84;100.00;100249.72;5490979;26;20530;-71
2024/04/20 03:51:52;;;;;;;1.90;0.30;;;;;;;4.88;100.00;100260.72;5493027;26;21115;-72
2024/04/20 03:54:21;;;;;;;1.90;0.30;;;;;;;4.90;100.00;100264.75;5488457;26;20528;-72
2024/04/20 03:56:49;;;;;;;1.97;0.30;;;;;;;4.95;100.00;100269.28;5493253;26;20452;-71
2024/04/20 03:59:18;;;;;;;1.97;0.30;;;;;;;4.86;100.00;100268.22;5489036;26;20621;-73
2024/04/20 04:01:46;;;;;;;1.90;0.30;;;;;;;4.78;100.00;100278.47;5491834;26;20474;-74
2024/04/20 04:04:17;;;;;;;1.93;0.30;;;;;;;4.77;100.00;100286.75;5489746;26;20547;-74
2024/04/20 04:06:45;;;;;;;1.90;0.30;;;;;;;4.78;100.00;100291.88;5490014;26;20924;-71
2024/04/20 04:09:14;;;;;;;2.00;0.30;;;;;;;4.79;100.00;100301.53;5492716;26;20505;-73
2024/04/20 04:11:43;;;;;;;1.90;0.30;;;;;;;4.71;100.00;100303.94;5491440;26;20475;-70
2024/04/20 04:14:11;;;;;;;2.00;0.50;;;;;;;4.70;100.00;100319.25;5491123;26;20814;-70
2024/04/20 04:16:39;;;;;;;1.97;0.40;;;;;;;4.76;100.00;100317.34;5491006;26;20811;-70
2024/04/20 04:19:07;;;;;;;2.10;0.60;;;;;;;4.71;100.00;100325.41;5491268;26;20866;-70
2024/04/20 04:21:38;;;;;;;1.90;0.30;;;;;;;4.72;100.00;100332.38;5492557;26;20501;-70
2024/04/20 04:24:07;;;;;;;1.90;0.30;;;;;;;4.69;100.00;100339.09;5491621;26;20854;-71
2024/04/20 04:26:35;;;;;;;1.90;0.30;;;;;;;4.69;100.00;100349.00;5490047;26;20528;-70
2024/04/20 04:29:04;;;;;;;2.00;0.30;;;;;;;4.74;100.00;100349.03;5491784;26;21056;-71
2024/04/20 04:31:32;;;;;;;1.93;0.30;;;;;;;4.74;100.00;100365.91;5490038;26;20461;-73
2024/04/20 04:34:00;;;;;;;2.00;0.40;;;;;;;4.84;100.00;100370.47;5490751;26;20532;-71
2024/04/20 04:36:28;;;;;;;1.90;0.30;;;;;;;4.78;100.00;100383.09;5487454;26;21234;-71
2024/04/20 04:39:00;;;;;;;2.00;0.30;;;;;;;4.63;100.00;100388.44;5484455;26;20461;-71
2024/04/20 04:41:28;;;;;;;1.90;0.30;;;;;;;4.69;100.00;100395.44;5468337;26;20539;-71
2024/04/20 04:43:56;;;;;;;2.00;0.30;;;;;;;4.64;100.00;100394.59;5491610;26;20475;-73
2024/04/20 04:46:24;;;;;;;1.90;0.30;;;;;;;4.69;100.00;100408.84;5490933;26;20476;-73
2024/04/20 04:48:53;;;;;;;2.00;0.30;;;;;;;4.66;100.00;100400.50;5486663;26;20886;-71
2024/04/20 04:51:22;;;;;;;2.00;0.30;;;;;;;4.66;100.00;100414.72;5492144;26;20500;-70
2024/04/20 04:53:50;;;;;;;1.93;0.30;;;;;;;4.69;100.00;100419.56;5486790;26;20532;-70
2024/04/20 04:56:21;;;;;;;1.97;0.30;;;;;;;4.77;100.00;100432.44;5490573;26;20861;-70
2024/04/20 04:58:50;;;;;;;2.00;0.30;;;;;;;4.79;100.00;100434.88;5486600;26;20532;-68
2024/04/20 05:01:18;;;;;;;2.00;0.50;;;;;;;4.70;100.00;100439.97;5462761;26;21046;-69
2024/04/20 05:03:46;;;;;;;1.97;0.30;;;;;;;4.73;100.00;100447.44;5491569;26;20543;-69
2024/04/20 05:06:15;;;;;;;1.93;0.30;;;;;;;4.76;100.00;100452.28;5490966;26;20520;-70
2024/04/20 05:08:43;;;;;;;2.00;0.30;;;;;;;4.63;100.00;100458.16;5487593;26;20469;-69
2024/04/20 05:11:12;;;;;;;2.00;0.30;;;;;;;4.75;100.00;100472.16;5490508;26;21031;-69
2024/04/20 05:13:42;;;;;;;2.00;0.30;;;;;;;4.74;100.00;100477.81;5490329;26;20468;-69
2024/04/20 05:16:11;;;;;;;2.00;0.40;;;;;;;4.72;100.00;100480.72;5490177;26;20562;-69
2024/04/20 05:18:39;;;;;;;2.00;0.40;;;;;;;4.74;100.00;100489.34;5490557;26;20464;-69
2024/04/20 05:21:07;;;;;;;2.00;0.40;;;;;;;4.76;100.00;100489.84;5488050;26;20472;-69
2024/04/20 05:23:35;;;;;;;2.00;0.30;;;;;;;4.66;100.00;100500.56;5490331;26;20488;-69
2024/04/20 05:26:04;;;;;;;2.03;0.53;;;;;;;4.60;100.00;100506.16;5488917;26;21019;-70
2024/04/20 05:28:33;;;;;;;2.20;0.40;;;;;;;4.68;100.00;100509.16;5490385;26;20878;-70
2024/04/20 05:31:04;;;;;;;2.00;0.57;;;;;;;4.75;100.00;100506.25;5488336;26;20524;-70
2024/04/20 05:33:32;;;;;;;2.00;0.40;;;;;;;4.79;100.00;100523.41;5489808;26;20484;-70
2024/04/20 05:36:04;;;;;;;2.00;0.40;;;;;;;4.81;100.00;100523.94;5491553;26;20444;-69
2024/04/20 05:38:32;;;;;;;1.93;0.30;;;;;;;4.79;100.00;100540.31;5489770;26;21065;-70
2024/04/20 05:41:04;;;;;;;1.93;0.30;;;;;;;4.69;100.00;100550.19;5490260;26;20512;-69
2024/04/20 05:43:33;;;;;;;1.97;0.40;;;;;;;4.79;100.00;100543.00;5491217;26;20851;-69
2024/04/20 05:46:03;;;;;;;1.93;0.30;;;;;;;4.77;100.00;100565.78;5490932;26;20464;-70
2024/04/20 05:48:33;;;;;;;2.00;0.30;;;;;;;4.88;100.00;100551.34;5488889;26;20550;-71
2024/04/20 05:51:01;;;;;;;2.00;0.40;;;;;;;5.00;100.00;100572.56;5489338;26;20812;-71
2024/04/20 05:53:30;;;;;;;2.30;0.67;;;;;;;4.84;100.00;100570.94;5489844;26;20817;-70
2024/04/20 05:56:00;;;;;;;2.10;0.73;;;;;;;4.92;100.00;100583.84;5488376;26;20472;-69
2024/04/20 05:58:28;;;;;;;2.00;0.30;;;;;;;4.99;100.00;100581.69;5488856;26;20524;-69
2024/04/20 06:00:56;;;;;;;2.43;0.83;;;;;;;4.99;100.00;100584.38;5491092;26;20829;-71
2024/04/20 06:03:27;;;;;;;2.77;0.73;;;;;;;4.93;100.00;100590.81;5486760;26;20515;-70
2024/04/20 06:05:55;;;;;;;1.97;0.30;;;;;;;4.97;100.00;100605.31;5488431;26;20560;-70
2024/04/20 06:08:24;;;;;;;2.50;1.10;;;;;;;4.98;100.00;100598.88;5489736;26;20520;-72
2024/04/20 06:10:56;;;;;;;2.30;0.80;;;;;;;4.87;100.00;100613.31;5488787;26;20472;-73
2024/04/20 06:13:25;;;;;;;1.97;0.30;;;;;;;4.85;100.00;100610.09;5464331;26;20528;-69
2024/04/20 06:15:53;;;;;;;2.10;0.47;;;;;;;4.85;100.00;100618.16;5490466;26;20480;-69
2024/04/20 06:18:22;;;;;;;2.50;0.80;;;;;;;4.80;100.00;100614.38;5490509;26;20468;-69
2024/04/20 06:20:54;;;;;;;2.00;0.40;;;;;;;4.74;100.00;100623.47;5490853;26;20448;-69
2024/04/20 06:23:22;;;;;;;2.00;0.30;;;;;;;4.77;100.00;100635.56;5490842;26;20468;-69
2024/04/20 06:25:51;;;;;;;2.00;0.30;;;;;;;4.87;100.00;100632.09;5489917;26;20516;-70
2024/04/20 06:28:19;;;;;;;2.00;0.30;;;;;;;4.95;100.00;100642.34;5490575;26;20524;-69
2024/04/20 06:30:50;;;;;;;2.80;1.27;;;;;;;4.98;100.00;100644.50;5490703;26;20448;-70
2024/04/20 06:33:19;;;;;;;2.17;0.47;;;;;;;4.92;100.00;100653.63;5490548;26;20475;-70
2024/04/20 06:35:47;;;;;;;2.00;0.30;;;;;;;4.92;100.00;100651.75;5490016;26;20456;-70
2024/04/20 06:38:18;;;;;;;2.10;0.70;;;;;;;4.90;100.00;100664.59;5490495;26;20520;-70
2024/04/20 06:40:47;;;;;;;2.10;0.50;;;;;;;4.88;100.00;100674.00;5490522;26;20621;-70
2024/04/20 06:43:15;;;;;;;1.90;0.30;;;;;;;4.88;100.00;100676.69;5490331;26;20517;-70
2024/04/20 06:45:43;;;;;;;2.00;0.40;;;;;;;4.90;100.00;100678.03;5490185;26;20465;-70
2024/04/20 06:48:13;;;;;;;2.30;0.70;;;;;;;4.96;100.00;100687.72;5490101;26;20512;-71
2024/04/20 06:50:42;;;;;;;2.00;0.30;;;;;;;4.96;100.00;100687.72;5490411;26;20547;-72
2024/04/20 06:53:10;;;;;;;2.00;0.40;;;;;;;4.98;100.00;100700.88;5490185;26;20480;-70
2024/04/20 06:55:41;;;;;;;2.00;0.40;;;;;;;4.92;100.00;100699.25;5490373;26;20452;-71
2024/04/20 06:58:09;;;;;;;1.97;0.30;;;;;;;4.93;100.00;100703.53;5489514;26;20516;-71
2024/04/20 07:00:39;;;;;;;2.63;0.70;;;;;;;4.95;100.00;100712.94;5489613;26;20464;-71
2024/04/20 07:03:07;;;;;;;2.57;0.83;;;;;;;4.99;100.00;100714.03;5490395;26;20480;-71
2024/04/20 07:05:35;;;;;;;2.00;0.30;;;;;;;5.03;100.00;100714.31;5489815;26;20579;-70
2024/04/20 07:08:04;;;;;;;2.00;0.30;;;;;;;5.17;100.00;100725.41;5489034;26;20999;-73
2024/04/20 07:10:32;;;;;;;2.10;0.63;;;;;;;5.30;100.00;100725.72;5489553;26;20460;-70
2024/04/20 07:13:03;;;;;;;2.00;0.40;;;;;;;5.36;99.25;100725.75;5489722;26;20527;-70
2024/04/20 07:15:31;;;;;;;2.00;0.40;;;;;;;5.47;100.00;100740.84;5489716;26;20448;-72
2024/04/20 07:17:59;;;;;;;2.33;0.80;;;;;;;5.54;98.75;100736.84;5489053;26;20991;-70
2024/04/20 07:20:28;;;;;;;2.00;0.30;;;;;;;5.55;97.07;100746.50;5489643;26;21030;-71
2024/04/20 07:22:56;;;;;;;2.10;0.63;;;;;;;5.57;96.27;100738.97;5489269;26;20847;-71
2024/04/20 07:25:24;;;;;;;2.00;0.30;;;;;;;5.63;94.93;100753.25;5489831;26;20504;-72
2024/04/20 07:27:53;;;;;;;1.93;0.40;;;;;;;5.73;95.58;100745.22;5489723;26;21039;-72
2024/04/20 07:30:24;;;;;;;2.43;1.03;;;;;;;5.96;93.30;100756.59;5489328;26;20465;-71
2024/04/20 07:32:52;;;;;;;2.37;0.73;;;;;;;6.19;92.98;100769.53;5489407;26;20471;-71
2024/04/20 07:35:20;;;;;;;2.23;0.60;;;;;;;6.27;91.69;100781.66;5489582;26;20464;-71
2024/04/20 07:37:48;;;;;;;2.07;0.40;;;;;;;6.14;90.16;100780.28;5489672;26;20547;-71
2024/04/20 07:40:17;;;;;;;2.00;0.40;;;;;;;6.18;93.35;100791.31;5489465;26;20508;-72
2024/04/20 07:42:45;;;;;;;2.30;0.60;;;;;;;6.27;90.18;100800.47;5489182;26;20471;-71
2024/04/20 07:45:13;;;;;;;2.10;0.50;;;;;;;6.35;89.33;100799.16;5472716;26;20468;-72
2024/04/20 07:47:44;;;;;;;2.00;0.37;;;;;;;6.40;92.21;100802.66;5489186;26;20471;-72
2024/04/20 07:50:15;;;;;;;2.00;0.40;;;;;;;6.42;91.47;100822.03;5489698;26;20500;-72
2024/04/20 07:52:43;;;;;;;2.00;0.30;;;;;;;6.44;88.56;100819.88;5489229;26;20524;-72
2024/04/20 07:55:11;;;;;;;2.00;0.33;;;;;;;6.43;86.34;100822.84;5488508;26;20513;-72
2024/04/20 07:57:39;;;;;;;2.40;0.80;;;;;;;6.53;89.58;100834.41;5489129;26;20508;-73
2024/04/20 08:00:09;;;;;;;2.77;0.80;;;;;;;6.61;88.30;100825.00;5488845;26;21027;-73
2024/04/20 08:02:37;;;;;;;2.00;0.40;;;;;;;6.75;84.50;100831.47;5488635;26;20492;-72
2024/04/20 08:05:09;;;;;;;2.03;0.40;;;;;;;6.80;83.47;100841.44;5488898;26;20508;-72
2024/04/20 08:07:37;;;;;;;2.10;0.50;;;;;;;6.80;82.81;100842.22;5488924;26;20460;-71
2024/04/20 08:10:06;;;;;;;2.03;0.40;;;;;;;6.68;82.22;100847.06;5488561;26;20521;-72
2024/04/20 08:12:34;;;;;;;2.00;0.40;;;;;;;6.68;83.22;100863.22;5488708;26;20480;-72
2024/04/20 08:15:02;;;;;;;2.10;0.50;;;;;;;6.67;82.95;100867.00;5488249;26;20464;-71
2024/04/20 08:17:31;;;;;;;2.57;0.73;;;;;;;6.68;84.54;100870.47;5488716;26;20541;-71
2024/04/20 08:19:59;;;;;;;2.73;1.40;;;;;;;6.76;83.17;100875.34;5491696;26;20456;-71
2024/04/20 08:22:30;;;;;;;2.00;0.30;;;;;;;6.74;81.34;100891.78;5492311;26;20678;-71
2024/04/20 08:24:58;;;;;;;2.10;0.53;;;;;;;6.72;80.65;100887.72;5492060;26;20463;-70
2024/04/20 08:27:26;;;;;;;2.57;0.47;;;;;;;6.67;77.55;100887.72;5492274;26;20468;-70
2024/04/20 08:29:54;;;;;;;2.00;0.40;;;;;;;6.73;78.96;100897.41;5492341;26;20452;-70
2024/04/20 08:32:23;;;;;;;2.00;0.50;;;;;;;6.96;81.84;100888.03;5492241;26;20480;-71
2024/04/20 08:34:52;;;;;;;2.10;0.50;;;;;;;7.17;79.23;100896.88;5492292;26;20464;-70
2024/04/20 08:37:21;;;;;;;2.00;0.40;;;;;;;7.25;75.96;100904.44;5491698;26;20855;-70
2024/04/20 08:39:52;;;;;;;2.00;0.30;;;;;;;7.36;75.87;100913.31;5492102;26;20851;-71
2024/04/20 08:42:29;;;;;;;3.90;1.13;;;;;;;7.39;72.81;100918.16;5491874;26;20464;-71
2024/04/20 08:44:58;;;;;;;3.40;1.03;;;;;;;7.31;72.03;100909.56;5502698;20;20467;-67
2024/04/20 08:47:27;;;;;;;2.10;0.60;;;;;;;7.32;73.46;100932.72;5445009;26;20526;-67
2024/04/20 08:49:56;;;;;;;2.20;0.60;;;;;;;7.40;74.72;100931.38;5443257;26;21044;-67
2024/04/20 08:52:25;;;;;;;2.63;0.70;;;;;;;7.32;74.20;100924.63;5453468;26;20453;-67
2024/04/20 08:54:57;;;;;;;2.00;0.40;;;;;;;7.45;75.90;100935.94;5528851;26;20443;-67
2024/04/20 08:57:26;;;;;;;3.20;0.63;;;;;;;7.45;71.62;100942.16;5529006;26;20572;-67
2024/04/20 08:59:54;;;;;;;2.47;0.90;;;;;;;7.36;72.57;100941.06;5475025;26;20465;-67
2024/04/20 09:02:26;;;;;;;2.53;1.00;;;;;;;7.26;73.46;100954.53;5493351;26;20815;-67
2024/04/20 09:04:58;;;;;;;2.00;0.40;;;;;;;7.25;72.53;100959.13;5491827;26;20886;-66
2024/04/20 09:07:27;;;;;;;2.00;0.40;;;;;;;7.29;72.72;100967.47;5491734;26;20975;-66
2024/04/20 09:09:58;;;;;;;2.73;1.27;;;;;;;7.30;75.04;100971.78;5482685;26;20570;-66
2024/04/20 09:12:26;;;;;;;2.30;0.50;;;;;;;7.23;76.24;100973.94;5483125;26;20464;-67
2024/04/20 09:14:57;;;;;;;2.07;0.40;;;;;;;7.33;75.36;100971.25;5491602;26;20448;-67
2024/04/20 09:17:26;;;;;;;3.03;0.60;;;;;;;7.35;73.60;100971.81;5491554;26;20464;-67
2024/04/20 09:19:57;;;;;;;2.40;0.63;;;;;;;7.43;76.73;100973.13;5487899;26;20464;-66
2024/04/20 09:22:26;;;;;;;2.20;0.40;;;;;;;7.45;77.66;100971.00;5479483;26;20580;-66
2024/04/20 09:25:05;;;;;;;2.17;0.50;;;;;;;7.28;76.26;100987.41;5491691;26;20615;-66
2024/04/20 09:27:33;;;;;;;2.93;1.17;;;;;;;7.13;79.45;100988.22;5491722;26;20456;-66
2024/04/20 09:30:03;;;;;;;2.10;0.40;;;;;;;7.07;80.26;100991.97;5487788;26;20509;-67
2024/04/20 09:32:34;;;;;;;2.00;0.30;;;;;;;6.94;82.68;100995.19;5476958;26;20475;-67
2024/04/20 09:35:02;;;;;;;2.20;0.40;;;;;;;6.88;78.38;101004.34;5496314;26;20463;-66
2024/04/20 09:37:30;;;;;;;2.20;0.50;;;;;;;6.83;80.87;100999.75;5512883;25;20518;-66
2024/04/20 09:39:59;;;;;;;2.50;0.67;;;;;;;6.90;80.44;100999.47;5470558;26;20456;-67
2024/04/20 09:42:32;;;;;;;2.10;0.40;;;;;;;7.02;82.89;101005.44;5493790;26;20806;-66
2024/04/20 09:45:01;;;;;;;2.50;0.70;;;;;;;7.18;79.31;101007.09;5489948;26;20464;-67
2024/04/20 09:47:33;;;;;;;2.07;0.40;;;;;;;7.42;78.59;101011.94;5491444;26;20509;-66
2024/04/20 09:50:01;;;;;;;2.10;0.50;;;;;;;7.57;77.17;101001.19;5487822;26;21003;-67
2024/04/20 09:52:43;;;;;;;2.50;0.60;;;;;;;7.73;71.92;101007.34;5491594;26;20830;-67
2024/04/20 09:55:21;;;;;;;2.10;0.53;;;;;;;7.85;75.80;101015.97;5491225;26;21093;-66
2024/04/20 09:57:54;;;;;;;2.10;0.40;;;;;;;7.88;71.96;101014.59;5491499;26;20535;-67
2024/04/20 10:00:24;;;;;;;4.23;0.87;;;;;;;7.93;69.52;101017.31;5487283;26;20465;-67
2024/04/20 10:02:53;;;;;;;2.00;0.30;;;;;;;7.89;69.71;101016.25;5491240;26;20535;-67
2024/04/20 10:05:22;;;;;;;2.00;0.40;;;;;;;7.64;69.16;101025.94;5491775;26;20517;-67
2024/04/20 10:07:52;;;;;;;2.23;0.53;;;;;;;7.65;71.17;101027.56;5490980;26;20441;-66
2024/04/20 10:10:22;;;;;;;2.07;0.40;;;;;;;8.00;73.44;101010.53;5490893;26;20996;-70
2024/04/20 10:12:59;;;;;;;2.30;0.50;;;;;;;8.48;71.60;101026.34;5478058;26;20520;-68
2024/04/20 10:15:28;;;;;;;2.40;0.60;;;;;;;8.68;70.09;101017.38;5466084;26;20591;-72
2024/04/20 10:17:56;;;;;;;2.00;0.30;;;;;;;8.55;63.71;101032.28;5454416;26;20510;-70
2024/04/20 10:20:32;;;;;;;2.20;0.40;;;;;;;8.41;62.61;101039.31;5454140;26;20457;-66
2024/04/20 10:23:01;;;;;;;2.10;0.50;;;;;;;8.53;63.96;101029.03;5457446;26;20518;-66
2024/04/20 10:25:32;;;;;;;2.30;0.50;;;;;;;8.78;64.62;101028.13;5462503;26;20472;-66
2024/04/20 10:28:03;;;;;;;2.10;0.40;;;;;;;8.80;64.50;101055.66;5472729;26;20468;-64
2024/04/20 10:30:31;;;;;;;2.10;0.30;;;;;;;8.43;65.60;101045.28;5491077;26;20510;-65
2024/04/20 10:33:06;;;;;;;2.10;0.50;;;;;;;8.16;66.55;101050.97;5508962;26;20486;-65
2024/04/20 10:35:35;;;;;;;2.00;0.40;;;;;;;8.05;66.24;101052.88;5483972;26;21135;-64
2024/04/20 10:38:07;;;;;;;2.17;0.50;;;;;;;7.90;66.52;101063.69;5493521;26;20480;-65
2024/04/20 10:40:36;;;;;;;2.50;0.73;;;;;;;7.87;65.92;101062.34;5490146;26;20527;-66
2024/04/20 10:43:22;;;;;;;2.17;0.47;;;;;;;8.10;68.13;101050.16;5489793;26;20468;-66
2024/04/20 10:46:03;;;;;;;2.00;0.40;;;;;;;8.30;63.81;101058.22;5460310;26;20520;-66
2024/04/20 10:48:32;;;;;;;2.10;0.50;;;;;;;8.57;64.58;101060.59;5476085;26;20997;-65
2024/04/20 10:51:00;;;;;;;2.03;0.40;;;;;;;8.85;63.92;101055.63;5490455;26;20975;-64
2024/04/20 10:53:29;;;;;;;2.00;0.40;;;;;;;9.04;57.97;101070.13;5490517;26;20520;-65
2024/04/20 10:55:58;;;;;;;2.00;0.30;;;;;;;9.01;56.42;101076.06;5492685;26;20509;-65
2024/04/20 10:58:30;;;;;;;2.20;0.50;;;;;;;9.08;56.61;101070.38;5486649;26;20543;-65
2024/04/20 11:01:00;;;;;;;2.10;0.40;;;;;;;9.29;53.45;101071.84;5454289;26;20526;-65
2024/04/20 11:03:29;;;;;;;2.10;0.50;;;;;;;9.55;55.99;101063.56;5453796;26;20522;-65
2024/04/20 11:05:58;;;;;;;2.00;0.30;;;;;;;9.73;52.40;101065.56;5491173;26;20810;-65
2024/04/20 11:08:28;;;;;;;2.07;0.30;;;;;;;9.99;52.93;101068.06;5486512;26;20465;-65
2024/04/20 11:10:58;;;;;;;2.10;0.40;;;;;;;10.15;51.40;101066.03;5465745;26;20465;-65
2024/04/20 11:13:29;;;;;;;2.37;0.40;;;;;;;10.52;51.69;101066.19;5453672;26;20465;-65
2024/04/20 11:15:58;;;;;;;2.07;0.37;;;;;;;10.95;54.67;101060.78;5480860;26;20456;-65
2024/04/20 11:18:27;;;;;;;2.10;0.30;;;;;;;11.00;49.65;101076.16;5490107;26;20558;-66
2024/04/20 11:20:55;;;;;;;2.10;0.50;;;;;;;10.72;50.19;101083.31;5473811;26;20520;-65
2024/04/20 11:23:25;;;;;;;2.67;0.57;;;;;;;10.65;52.25;101088.25;5459913;26;20469;-65
2024/04/20 11:25:54;;;;;;;2.30;0.70;;;;;;;10.63;52.42;101083.16;5491834;26;21007;-65
2024/04/20 11:28:23;;;;;;;2.10;0.40;;;;;;;10.55;50.50;101089.19;5489749;26;20822;-65
2024/04/20 11:30:54;;;;;;;2.40;0.50;;;;;;;11.12;51.75;101098.25;5485622;26;20468;-65
2024/04/20 11:33:22;;;;;;;2.10;0.40;;;;;;;12.20;47.12;101098.19;5453188;26;20469;-65
2024/04/20 11:35:52;;;;;;;2.10;0.40;;;;;;;13.06;44.45;101116.66;5491741;26;20460;-65
2024/04/20 11:38:20;;;;;;;2.10;0.47;;;;;;;14.29;43.94;101106.41;5489513;26;20456;-65